EHWO/WOE METAR and TAF weather

Enter ICAO airport designator
Station Type Date Time Source
EHWO METAR 2019/04/21 22:25 UTC NOAA

EHWO 212225Z AUTO 07006KT 9999 NCD 12/05 Q1014 BLU


Station Type Date Time Source
EHWO Decoded METAR 2019/04/21 22:25 UTC NOAA

Woensdrecht, Netherlands (EHWO) 51-27N 004-20E 17M
Apr 21, 2019 - 06:25 PM EDT / 2019.04.21 2225 UTC
Wind: from the ENE (070 degrees) at 7 MPH (6 KT):0
Visibility: greater than 7 mile(s):0
Temperature: 53 F (12 C)
Dew Point: 41 F (5 C)
Relative Humidity: 62%
Pressure (altimeter): 29.94 in. Hg (1014 hPa)
ob: EHWO 212225Z AUTO 07006KT 9999 NCD 12/05 Q1014 BLU
cycle: 22

Station Type Date Time Source
EHWO TAF 2019/04/19 09:06 UTC NOAA

TAF EHWO 190857Z 1909/1921 08008KT CAVOK
TEMPO 1911/1914 0800717KT

Example: see airport list